Menu Close Menu
Station Historical Data
Daily Summary for April 28, 2017 Units:  English    Metric   Both
« Previous Day
Next Day »
Daily Weekly Monthly Yearly Custom
  High: Low: Average:
Temperature: 84.5 °F 62.8 °F 73 °F
Dew Point: 68.6 °F 59.8 °F 64.7 °F
Humidity: 93% 54% 77%
Wind Speed: 1.0mph 0.0mph 0mph
Wind Gust: 5.0mph - -
Wind- - SSE
Pressure: 30.08 in 29.90 in -
Precipitation: 0.00 in    
Historical Graphs
 
 
Tabular Data for April 28, 2017
Time Temperature Dew Point Pressure Wind Wind Speed Wind Gust Humidity Rainfall Rate (Hourly) solar Conditions
00:00 62.8 °F 59.8 °F 29.90 in Calm     90% 0.00 in WeatherDisplay:10.37 W/m2 RA
00:15 63.5 °F 60.5 °F 29.90 in Calm     90% 0.00 in WeatherDisplay:10.37 W/m2 SCT
00:30 65.5 °F 63.4 °F 29.90 in Calm     93% 0.00 in WeatherDisplay:10.37 W/m2 SCT
00:45 63.7 °F 60.4 °F 29.90 in Calm     89% 0.00 in WeatherDisplay:10.37 W/m2 SCT
01:00 62.9 °F 59.9 °F 29.90 in Calm     90% 0.00 in WeatherDisplay:10.37 W/m2 SCT
01:15 63.3 °F 60.6 °F 29.91 in Calm     91% 0.00 in WeatherDisplay:10.37 W/m2 SCT
01:30 63.4 °F 60.7 °F 29.91 in Calm     91% 0.00 in WeatherDisplay:10.37 W/m2 SCT
01:45 64.6 °F 62.2 °F 29.92 in Calm     92% 0.00 in WeatherDisplay:10.37 W/m2 SCT
02:00 65.9 °F 63.8 °F 29.92 in Calm     93% 0.00 in WeatherDisplay:10.37 W/m2 SCT
02:15 65.8 °F 63.4 °F 29.92 in Calm     92% 0.00 in WeatherDisplay:10.37 W/m2 SCT
02:30 65.0 °F 62.6 °F 29.92 in Calm     92% 0.00 in WeatherDisplay:10.37 W/m2 SCT
02:45 65.2 °F 62.8 °F 29.92 in Calm   1.0 mph 92% 0.00 in WeatherDisplay:10.37 W/m2 SCT
03:00 65.1 °F 62.7 °F 29.92 in Calm     92% 0.00 in WeatherDisplay:10.37 W/m2 SCT
03:15 65.2 °F 62.8 °F 29.92 in Calm     92% 0.00 in WeatherDisplay:10.37 W/m2 SCT
03:30 65.3 °F 62.9 °F 29.92 in Calm   1.0 mph 92% 0.00 in WeatherDisplay:10.37 W/m2 SCT
03:45 65.1 °F 62.7 °F 29.93 in Calm     92% 0.00 in WeatherDisplay:10.37 W/m2 SCT
04:00 64.1 °F 61.7 °F 29.93 in Calm     92% 0.00 in WeatherDisplay:10.37 W/m2 SCT
04:15 64.1 °F 61.7 °F 29.93 in Calm     92% 0.00 in WeatherDisplay:10.37 W/m2 SCT
04:30 64.1 °F 61.7 °F 29.93 in Calm     92% 0.00 in WeatherDisplay:10.37 W/m2 SCT
04:45 64.1 °F 61.7 °F 29.93 in Calm     92% 0.00 in WeatherDisplay:10.37 W/m2 SCT
05:00 64.1 °F 61.7 °F 29.93 in Calm     92% 0.00 in WeatherDisplay:10.37 W/m2 SCT
05:15 64.1 °F 61.7 °F 29.94 in Calm     92% 0.00 in WeatherDisplay:10.37 W/m2 SCT
05:30 64.1 °F 61.7 °F 29.95 in Calm     92% 0.00 in WeatherDisplay:10.37 W/m2 SCT
05:45 64.1 °F 61.7 °F 29.95 in Calm     92% 0.00 in WeatherDisplay:10.37 W/m2 SCT
06:00 64.1 °F 61.7 °F 29.95 in Calm     92% 0.00 in WeatherDisplay:10.37 W/m2 SCT
06:15 64.1 °F 61.7 °F 29.96 in Calm     92% 0.00 in WeatherDisplay:10.37 W/m2 SCT
06:30 64.1 °F 61.7 °F 29.96 in Calm     92% 0.00 in WeatherDisplay:10.37 W/m2 SCT
07:00 64.1 °F 61.7 °F 29.97 in Calm     92% 0.00 in WeatherDisplay:10.37 W/m2 SCT
07:30 64.1 °F 61.7 °F 29.99 in Calm     92% 0.00 in WeatherDisplay:10.37 W/m2 SCT
07:45 64.1 °F 61.7 °F 30.00 in Calm     92% 0.00 in WeatherDisplay:10.37 W/m2 SCT
08:00 64.1 °F 61.7 °F 30.00 in Calm     92% 0.00 in WeatherDisplay:10.37 W/m2 SCT
08:15 64.1 °F 61.7 °F 30.01 in Calm     92% 0.00 in WeatherDisplay:10.37 W/m2 SCT
08:30 64.1 °F 61.7 °F 30.01 in Calm     92% 0.00 in WeatherDisplay:10.37 W/m2 SCT
08:45 64.1 °F 61.7 °F 30.01 in Calm     92% 0.00 in WeatherDisplay:10.37 W/m2 SCT
09:00 64.1 °F 61.7 °F 30.02 in Calm     92% 0.00 in WeatherDisplay:10.37 W/m2 SCT
09:15 64.1 °F 61.7 °F 30.02 in Calm     92% 0.00 in WeatherDisplay:10.37 W/m2 SCT
09:30 68.3 °F 66.2 °F 30.02 in Calm     93% 0.00 in WeatherDisplay:10.37 W/m2 SCT
09:45 68.9 °F 66.8 °F 30.03 in Calm   1.0 mph 93% 0.00 in WeatherDisplay:10.37 W/m2 SCT
10:00 69.9 °F 67.5 °F 30.03 in Calm   1.0 mph 92% 0.00 in WeatherDisplay:10.37 W/m2 SCT
10:15 70.7 °F 67.6 °F 30.03 in Calm   1.0 mph 90% 0.00 in WeatherDisplay:10.37 W/m2 SCT
10:30 72.3 °F 68.5 °F 30.03 in Calm     88% 0.00 in WeatherDisplay:10.37 W/m2 SCT
10:45 74.5 °F 68.6 °F 30.03 in Calm   2.0 mph 82% 0.00 in WeatherDisplay:10.37 W/m2 SCT
11:00 75.9 °F 68.2 °F 30.03 in Calm   2.0 mph 77% 0.00 in WeatherDisplay:10.37 W/m2 SCT
11:15 76.7 °F 68.1 °F 30.03 in Calm   2.0 mph 75% 0.00 in WeatherDisplay:10.37 W/m2 SCT
11:30 77.7 °F 68.0 °F 30.04 in Calm   3.0 mph 72% 0.00 in WeatherDisplay:10.37 W/m2 SCT
11:45 76.9 °F 67.2 °F 30.04 in Calm   2.0 mph 72% 0.00 in WeatherDisplay:10.37 W/m2 SCT
12:00 77.5 °F 67.8 °F 30.03 in Calm   1.0 mph 72% 0.00 in WeatherDisplay:10.37 W/m2 SCT
12:15 80.0 °F 67.6 °F 30.03 in NW 1.0 mph 5.0 mph 66% 0.00 in WeatherDisplay:10.37 W/m2 SCT
12:30 80.5 °F 67.6 °F 30.04 in Calm   3.0 mph 65% 0.00 in WeatherDisplay:10.37 W/m2 SCT
12:45 80.4 °F 67.6 °F 30.03 in Calm   2.0 mph 65% 0.00 in WeatherDisplay:10.37 W/m2 SCT
13:00 81.6 °F 67.7 °F 30.03 in Calm   3.0 mph 63% 0.00 in WeatherDisplay:10.37 W/m2 SCT
13:15 81.7 °F 67.0 °F 30.02 in Calm   2.0 mph 61% 0.00 in WeatherDisplay:10.37 W/m2 SCT
13:30 82.5 °F 66.2 °F 30.02 in Calm   4.0 mph 58% 0.00 in WeatherDisplay:10.37 W/m2 SCT
13:45 83.1 °F 66.3 °F 30.02 in Calm   2.0 mph 57% 0.00 in WeatherDisplay:10.37 W/m2 SCT
14:00 84.1 °F 66.2 °F 30.02 in Calm   2.0 mph 55% 0.00 in WeatherDisplay:10.37 W/m2 SCT
14:15 83.8 °F 65.9 °F 30.02 in Calm   3.0 mph 55% 0.00 in WeatherDisplay:10.37 W/m2 SCT
14:30 84.5 °F 67.6 °F 30.02 in Calm   2.0 mph 57% 0.00 in WeatherDisplay:10.37 W/m2 SCT
14:45 84.0 °F 66.6 °F 30.02 in Calm   3.0 mph 56% 0.00 in WeatherDisplay:10.37 W/m2 SCT
15:00 84.5 °F 66.0 °F 30.02 in NNE 1.0 mph 5.0 mph 54% 0.00 in WeatherDisplay:10.37 W/m2 SCT
15:15 84.0 °F 66.1 °F 30.01 in Calm   2.0 mph 55% 0.00 in WeatherDisplay:10.37 W/m2 SCT
15:30 84.4 °F 66.5 °F 30.01 in Calm   2.0 mph 55% 0.00 in WeatherDisplay:10.37 W/m2 SCT
15:45 83.6 °F 66.2 °F 30.01 in Calm   3.0 mph 56% 0.00 in WeatherDisplay:10.37 W/m2 SCT
16:00 82.9 °F 65.6 °F 30.01 in Calm   3.0 mph 56% 0.00 in WeatherDisplay:10.37 W/m2 SCT
16:15 82.0 °F 65.3 °F 30.01 in Calm   3.0 mph 57% 0.00 in WeatherDisplay:10.37 W/m2 SCT
16:30 82.5 °F 66.2 °F 30.01 in Calm   5.0 mph 58% 0.00 in WeatherDisplay:10.37 W/m2 SCT
16:45 81.8 °F 65.1 °F 30.01 in Calm   2.0 mph 57% 0.00 in WeatherDisplay:10.37 W/m2 SCT
17:00 81.0 °F 66.8 °F 30.01 in Calm   2.0 mph 62% 0.00 in WeatherDisplay:10.37 W/m2 SCT
17:15 82.2 °F 66.0 °F 30.01 in Calm   2.0 mph 58% 0.00 in WeatherDisplay:10.37 W/m2 SCT
17:30 82.5 °F 65.8 °F 30.01 in Calm   3.0 mph 57% 0.00 in WeatherDisplay:10.37 W/m2 SCT
17:45 82.0 °F 66.3 °F 30.01 in Calm   2.0 mph 59% 0.00 in WeatherDisplay:10.37 W/m2 SCT
18:00 82.1 °F 66.8 °F 30.01 in Calm   2.0 mph 60% 0.00 in WeatherDisplay:10.37 W/m2 SCT
18:15 82.2 °F 66.5 °F 30.01 in Calm   1.0 mph 59% 0.00 in WeatherDisplay:10.37 W/m2 SCT
18:30 81.0 °F 66.3 °F 30.01 in Calm   3.0 mph 61% 0.00 in WeatherDisplay:10.37 W/m2 SCT
18:45 80.5 °F 66.2 °F 30.01 in Calm   1.0 mph 62% 0.00 in WeatherDisplay:10.37 W/m2 SCT
19:00 80.3 °F 67.0 °F 30.01 in Calm   1.0 mph 64% 0.00 in WeatherDisplay:10.37 W/m2 SCT
19:15 80.5 °F 66.3 °F 30.01 in Calm   2.0 mph 62% 0.00 in WeatherDisplay:10.37 W/m2 SCT
19:30 80.1 °F 66.8 °F 30.02 in Calm   1.0 mph 64% 0.00 in WeatherDisplay:10.37 W/m2 SCT
19:45 79.3 °F 66.5 °F 30.02 in Calm     65% 0.00 in WeatherDisplay:10.37 W/m2 SCT
20:00 78.6 °F 66.3 °F 30.03 in Calm     66% 0.00 in WeatherDisplay:10.37 W/m2 SCT
20:15 77.9 °F 66.1 °F 30.03 in Calm     67% 0.00 in WeatherDisplay:10.37 W/m2 SCT
20:30 77.2 °F 66.3 °F 30.03 in Calm     69% 0.00 in WeatherDisplay:10.37 W/m2 SCT
20:45 76.7 °F 66.2 °F 30.04 in Calm     70% 0.00 in WeatherDisplay:10.37 W/m2 SCT
21:00 76.1 °F 66.1 °F 30.04 in Calm     71% 0.00 in WeatherDisplay:10.37 W/m2 SCT
21:15 75.6 °F 65.9 °F 30.05 in Calm     72% 0.00 in WeatherDisplay:10.37 W/m2 SCT
21:30 75.1 °F 65.9 °F 30.05 in Calm     73% 0.00 in WeatherDisplay:10.37 W/m2 SCT
21:45 74.5 °F 65.7 °F 30.06 in Calm     74% 0.00 in WeatherDisplay:10.37 W/m2 SCT
22:00 74.1 °F 66.1 °F 30.06 in Calm     76% 0.00 in WeatherDisplay:10.37 W/m2 SCT
22:15 73.6 °F 65.6 °F 30.07 in Calm     76% 0.00 in WeatherDisplay:10.37 W/m2 SCT
22:30 73.1 °F 65.8 °F 30.07 in Calm     78% 0.00 in WeatherDisplay:10.37 W/m2 SCT
22:45 72.6 °F 65.7 °F 30.07 in Calm     79% 0.00 in WeatherDisplay:10.37 W/m2 SCT
23:00 72.4 °F 65.9 °F 30.08 in Calm     80% 0.00 in WeatherDisplay:10.37 W/m2 SCT
23:15 72.4 °F 65.5 °F 30.08 in Calm     79% 0.00 in WeatherDisplay:10.37 W/m2 SCT
23:30 71.9 °F 65.4 °F 30.08 in Calm     80% 0.00 in WeatherDisplay:10.37 W/m2 SCT
23:45 71.4 °F 65.3 °F 30.08 in Calm     81% 0.00 in WeatherDisplay:10.37 W/m2 SCT
Piedmont Bend
Compliments of Weather Underground - 4 mb